sensor_id;sensor_type;location;lat;lon;timestamp;pressure;altitude;pressure_sealevel;temperature;humidity
55679;BME280;41573;51.446;-2.018;2022-07-10T00:02:08;102019.09;;;16.67;100.00
55679;BME280;41573;51.446;-2.018;2022-07-10T00:04:33;102022.78;;;16.66;100.00
55679;BME280;41573;51.446;-2.018;2022-07-10T00:06:58;102014.88;;;16.63;100.00
55679;BME280;41573;51.446;-2.018;2022-07-10T00:09:27;102026.53;;;16.63;100.00
55679;BME280;41573;51.446;-2.018;2022-07-10T00:11:53;102023.06;;;16.61;100.00
55679;BME280;41573;51.446;-2.018;2022-07-10T00:14:19;102021.34;;;16.60;100.00
55679;BME280;41573;51.446;-2.018;2022-07-10T00:16:45;102017.88;;;16.58;100.00
55679;BME280;41573;51.446;-2.018;2022-07-10T00:19:10;102027.09;;;16.54;100.00
55679;BME280;41573;51.446;-2.018;2022-07-10T00:21:36;102022.41;;;16.43;100.00
55679;BME280;41573;51.446;-2.018;2022-07-10T00:24:01;102011.72;;;16.27;100.00
55679;BME280;41573;51.446;-2.018;2022-07-10T00:26:27;102014.28;;;16.14;100.00
55679;BME280;41573;51.446;-2.018;2022-07-10T00:28:52;102025.22;;;16.11;100.00
55679;BME280;41573;51.446;-2.018;2022-07-10T00:31:18;102015.72;;;16.06;100.00
55679;BME280;41573;51.446;-2.018;2022-07-10T00:33:44;102010.72;;;15.99;100.00
55679;BME280;41573;51.446;-2.018;2022-07-10T00:36:09;102007.44;;;15.94;100.00
55679;BME280;41573;51.446;-2.018;2022-07-10T00:38:35;102014.75;;;15.92;100.00
55679;BME280;41573;51.446;-2.018;2022-07-10T00:41:00;102011.25;;;15.90;100.00
55679;BME280;41573;51.446;-2.018;2022-07-10T00:43:26;102017.88;;;15.84;100.00
55679;BME280;41573;51.446;-2.018;2022-07-10T00:45:51;102011.03;;;15.79;100.00
55679;BME280;41573;51.446;-2.018;2022-07-10T00:48:16;102005.91;;;15.74;100.00
55679;BME280;41573;51.446;-2.018;2022-07-10T00:50:44;102003.41;;;15.71;100.00
55679;BME280;41573;51.446;-2.018;2022-07-10T00:53:11;102004.56;;;15.67;100.00
55679;BME280;41573;51.446;-2.018;2022-07-10T00:55:39;102003.38;;;15.57;100.00
55679;BME280;41573;51.446;-2.018;2022-07-10T00:58:08;101996.66;;;15.49;100.00
55679;BME280;41573;51.446;-2.018;2022-07-10T01:00:35;101995.09;;;15.45;100.00
55679;BME280;41573;51.446;-2.018;2022-07-10T01:03:03;102006.00;;;15.42;100.00
55679;BME280;41573;51.446;-2.018;2022-07-10T01:05:28;101998.19;;;15.38;100.00
55679;BME280;41573;51.446;-2.018;2022-07-10T01:07:54;101995.69;;;15.34;100.00
55679;BME280;41573;51.446;-2.018;2022-07-10T01:10:19;101993.56;;;15.25;100.00
55679;BME280;41573;51.446;-2.018;2022-07-10T01:12:45;102001.19;;;15.17;100.00
55679;BME280;41573;51.446;-2.018;2022-07-10T01:15:11;101996.94;;;15.13;100.00
55679;BME280;41573;51.446;-2.018;2022-07-10T01:17:36;101995.56;;;15.06;100.00
55679;BME280;41573;51.446;-2.018;2022-07-10T01:20:06;101983.38;;;15.00;100.00
55679;BME280;41573;51.446;-2.018;2022-07-10T01:22:32;101985.44;;;14.95;100.00
55679;BME280;41573;51.446;-2.018;2022-07-10T01:24:58;101974.19;;;14.88;100.00
55679;BME280;41573;51.446;-2.018;2022-07-10T01:27:23;101984.41;;;14.81;100.00
55679;BME280;41573;51.446;-2.018;2022-07-10T01:29:49;101981.97;;;14.77;100.00
55679;BME280;41573;51.446;-2.018;2022-07-10T01:32:15;101978.84;;;14.69;100.00
55679;BME280;41573;51.446;-2.018;2022-07-10T01:34:40;101975.88;;;14.57;100.00
55679;BME280;41573;51.446;-2.018;2022-07-10T01:37:17;101972.09;;;14.44;100.00
55679;BME280;41573;51.446;-2.018;2022-07-10T01:39:43;101966.84;;;14.42;100.00
55679;BME280;41573;51.446;-2.018;2022-07-10T01:42:23;101971.25;;;14.43;100.00
55679;BME280;41573;51.446;-2.018;2022-07-10T01:44:49;101974.09;;;14.40;100.00
55679;BME280;41573;51.446;-2.018;2022-07-10T01:47:15;101977.19;;;14.32;100.00
55679;BME280;41573;51.446;-2.018;2022-07-10T01:49:40;101968.34;;;14.14;100.00
55679;BME280;41573;51.446;-2.018;2022-07-10T01:52:06;101970.72;;;14.03;100.00
55679;BME280;41573;51.446;-2.018;2022-07-10T01:54:32;101970.97;;;13.99;100.00
55679;BME280;41573;51.446;-2.018;2022-07-10T01:56:59;101970.34;;;13.93;100.00
55679;BME280;41573;51.446;-2.018;2022-07-10T01:59:27;101974.03;;;13.91;100.00
55679;BME280;41573;51.446;-2.018;2022-07-10T02:02:01;101969.88;;;13.85;100.00
55679;BME280;41573;51.446;-2.018;2022-07-10T02:04:41;101961.50;;;13.91;100.00
55679;BME280;41573;51.446;-2.018;2022-07-10T02:07:12;101963.78;;;13.99;100.00
55679;BME280;41573;51.446;-2.018;2022-07-10T02:09:40;101959.13;;;14.03;100.00
55679;BME280;41573;51.446;-2.018;2022-07-10T02:12:22;101959.84;;;14.06;100.00
55679;BME280;41573;51.446;-2.018;2022-07-10T02:14:57;101964.19;;;14.09;100.00
55679;BME280;41573;51.446;-2.018;2022-07-10T02:17:28;101970.50;;;13.90;100.00
55679;BME280;41573;51.446;-2.018;2022-07-10T02:20:02;101960.41;;;13.78;100.00
55679;BME280;41573;51.446;-2.018;2022-07-10T02:22:48;101977.34;;;13.78;100.00
55679;BME280;41573;51.446;-2.018;2022-07-10T02:35:45;101973.72;;;13.25;100.00
55679;BME280;41573;51.446;-2.018;2022-07-10T02:47:54;101968.56;;;13.03;100.00
55679;BME280;41573;51.446;-2.018;2022-07-10T02:50:20;101961.06;;;12.92;100.00
55679;BME280;41573;51.446;-2.018;2022-07-10T02:52:45;101963.09;;;12.87;100.00
55679;BME280;41573;51.446;-2.018;2022-07-10T02:55:10;101965.25;;;12.79;100.00
55679;BME280;41573;51.446;-2.018;2022-07-10T02:57:43;101954.72;;;12.76;100.00
55679;BME280;41573;51.446;-2.018;2022-07-10T03:00:13;101961.81;;;12.77;100.00
55679;BME280;41573;51.446;-2.018;2022-07-10T03:02:38;101970.19;;;12.69;100.00
55679;BME280;41573;51.446;-2.018;2022-07-10T03:05:04;101967.88;;;12.62;100.00
55679;BME280;41573;51.446;-2.018;2022-07-10T03:07:30;101962.53;;;12.62;100.00
55679;BME280;41573;51.446;-2.018;2022-07-10T03:09:55;101962.53;;;12.62;100.00
55679;BME280;41573;51.446;-2.018;2022-07-10T03:12:22;101960.94;;;12.57;100.00
55679;BME280;41573;51.446;-2.018;2022-07-10T03:14:52;101963.34;;;12.64;100.00
55679;BME280;41573;51.446;-2.018;2022-07-10T03:19:55;101955.00;;;12.70;100.00
55679;BME280;41573;51.446;-2.018;2022-07-10T03:22:37;101956.44;;;12.77;100.00
55679;BME280;41573;51.446;-2.018;2022-07-10T03:25:20;101953.69;;;12.79;100.00
55679;BME280;41573;51.446;-2.018;2022-07-10T03:28:14;101958.97;;;12.80;100.00
55679;BME280;41573;51.446;-2.018;2022-07-10T04:38:57;101950.72;;;11.45;100.00
55679;BME280;41573;51.446;-2.018;2022-07-10T04:41:48;101946.56;;;11.38;100.00
55679;BME280;41573;51.446;-2.018;2022-07-10T04:44:18;101945.66;;;11.39;100.00
55679;BME280;41573;51.446;-2.018;2022-07-10T04:46:48;101935.75;;;11.41;100.00
55679;BME280;41573;51.446;-2.018;2022-07-10T04:49:19;101944.31;;;11.49;100.00
55679;BME280;41573;51.446;-2.018;2022-07-10T04:51:55;101958.34;;;11.54;100.00
55679;BME280;41573;51.446;-2.018;2022-07-10T04:54:22;101956.59;;;11.53;100.00
55679;BME280;41573;51.446;-2.018;2022-07-10T04:56:48;101949.28;;;11.59;100.00
55679;BME280;41573;51.446;-2.018;2022-07-10T04:59:17;101951.53;;;11.47;100.00
55679;BME280;41573;51.446;-2.018;2022-07-10T05:01:54;101937.84;;;11.34;100.00
55679;BME280;41573;51.446;-2.018;2022-07-10T05:04:24;101929.78;;;11.36;100.00
55679;BME280;41573;51.446;-2.018;2022-07-10T05:06:52;101944.44;;;11.46;100.00
55679;BME280;41573;51.446;-2.018;2022-07-10T05:09:17;101944.31;;;11.49;100.00
55679;BME280;41573;51.446;-2.018;2022-07-10T05:11:48;101928.31;;;11.49;100.00
55679;BME280;41573;51.446;-2.018;2022-07-10T05:14:13;101930.59;;;11.59;100.00
55679;BME280;41573;51.446;-2.018;2022-07-10T05:16:39;101930.41;;;11.63;100.00
55679;BME280;41573;51.446;-2.018;2022-07-10T05:19:04;101929.13;;;11.72;100.00
55679;BME280;41573;51.446;-2.018;2022-07-10T05:21:29;101924.59;;;11.74;100.00
55679;BME280;41573;51.446;-2.018;2022-07-10T05:23:55;101925.25;;;11.79;100.00
55679;BME280;41573;51.446;-2.018;2022-07-10T05:26:20;101924.53;;;11.76;100.00
55679;BME280;41573;51.446;-2.018;2022-07-10T05:28:46;101940.00;;;11.88;100.00
55679;BME280;41573;51.446;-2.018;2022-07-10T05:31:11;101940.63;;;11.95;100.00
55679;BME280;41573;51.446;-2.018;2022-07-10T05:33:40;101934.34;;;11.96;100.00
55679;BME280;41573;51.446;-2.018;2022-07-10T05:36:06;101927.19;;;11.96;100.00
55679;BME280;41573;51.446;-2.018;2022-07-10T05:38:32;101936.47;;;12.08;100.00
55679;BME280;41573;51.446;-2.018;2022-07-10T05:41:06;101937.94;;;12.15;100.00
55679;BME280;41573;51.446;-2.018;2022-07-10T05:43:32;101944.84;;;12.19;100.00
55679;BME280;41573;51.446;-2.018;2022-07-10T05:45:57;101952.16;;;12.35;100.00
55679;BME280;41573;51.446;-2.018;2022-07-10T05:48:23;101948.28;;;12.42;100.00
55679;BME280;41573;51.446;-2.018;2022-07-10T05:53:20;101943.75;;;12.63;100.00
55679;BME280;41573;51.446;-2.018;2022-07-10T05:55:47;101949.38;;;12.76;100.00
55679;BME280;41573;51.446;-2.018;2022-07-10T05:58:13;101945.38;;;12.85;100.00
55679;BME280;41573;51.446;-2.018;2022-07-10T06:00:39;101946.88;;;12.90;100.00
55679;BME280;41573;51.446;-2.018;2022-07-10T06:03:05;101953.41;;;13.04;100.00
55679;BME280;41573;51.446;-2.018;2022-07-10T06:05:30;101947.72;;;13.10;100.00
55679;BME280;41573;51.446;-2.018;2022-07-10T06:07:56;101939.88;;;13.24;100.00
55679;BME280;41573;51.446;-2.018;2022-07-10T06:10:21;101943.88;;;13.35;100.00
55679;BME280;41573;51.446;-2.018;2022-07-10T06:12:47;101937.28;;;13.42;100.00
55679;BME280;41573;51.446;-2.018;2022-07-10T06:15:12;101928.84;;;13.50;100.00
55679;BME280;41573;51.446;-2.018;2022-07-10T06:20:57;101935.56;;;13.76;100.00
55679;BME280;41573;51.446;-2.018;2022-07-10T06:24:11;101934.13;;;13.86;100.00
55679;BME280;41573;51.446;-2.018;2022-07-10T06:26:55;101934.41;;;13.98;100.00
55679;BME280;41573;51.446;-2.018;2022-07-10T06:29:21;101933.41;;;14.00;100.00
55679;BME280;41573;51.446;-2.018;2022-07-10T06:31:47;101923.91;;;14.10;100.00
55679;BME280;41573;51.446;-2.018;2022-07-10T06:34:12;101929.63;;;14.20;100.00
55679;BME280;41573;51.446;-2.018;2022-07-10T06:36:41;101930.84;;;14.30;100.00
55679;BME280;41573;51.446;-2.018;2022-07-10T06:39:31;101934.44;;;14.47;100.00
55679;BME280;41573;51.446;-2.018;2022-07-10T06:41:59;101937.53;;;14.55;100.00
55679;BME280;41573;51.446;-2.018;2022-07-10T06:44:25;101932.81;;;14.60;100.00
55679;BME280;41573;51.446;-2.018;2022-07-10T06:46:51;101933.28;;;14.69;100.00
55679;BME280;41573;51.446;-2.018;2022-07-10T06:49:35;101932.66;;;14.79;100.00
55679;BME280;41573;51.446;-2.018;2022-07-10T06:52:01;101930.50;;;14.86;100.00
55679;BME280;41573;51.446;-2.018;2022-07-10T06:54:26;101930.94;;;14.94;100.00
55679;BME280;41573;51.446;-2.018;2022-07-10T06:56:52;101934.03;;;15.03;100.00
55679;BME280;41573;51.446;-2.018;2022-07-10T06:59:17;101937.16;;;15.11;100.00
55679;BME280;41573;51.446;-2.018;2022-07-10T07:01:43;101933.81;;;15.22;100.00
55679;BME280;41573;51.446;-2.018;2022-07-10T07:04:09;101935.09;;;15.30;100.00
55679;BME280;41573;51.446;-2.018;2022-07-10T07:06:34;101929.19;;;15.40;100.00
55679;BME280;41573;51.446;-2.018;2022-07-10T07:09:00;101925.38;;;15.44;100.00
55679;BME280;41573;51.446;-2.018;2022-07-10T07:11:29;101931.50;;;15.46;100.00
55679;BME280;41573;51.446;-2.018;2022-07-10T07:13:54;101923.38;;;15.47;100.00
55679;BME280;41573;51.446;-2.018;2022-07-10T07:16:20;101920.59;;;15.49;100.00
55679;BME280;41573;51.446;-2.018;2022-07-10T07:18:52;101924.28;;;15.62;100.00
55679;BME280;41573;51.446;-2.018;2022-07-10T07:21:19;101923.44;;;15.76;100.00
55679;BME280;41573;51.446;-2.018;2022-07-10T07:24:03;101922.63;;;15.90;100.00
55679;BME280;41573;51.446;-2.018;2022-07-10T07:26:30;101930.13;;;15.99;100.00
55679;BME280;41573;51.446;-2.018;2022-07-10T07:28:55;101922.50;;;15.92;100.00
55679;BME280;41573;51.446;-2.018;2022-07-10T07:31:21;101921.13;;;16.00;100.00
55679;BME280;41573;51.446;-2.018;2022-07-10T07:33:46;101927.63;;;16.11;100.00
55679;BME280;41573;51.446;-2.018;2022-07-10T07:36:12;101930.88;;;16.16;100.00
55679;BME280;41573;51.446;-2.018;2022-07-10T07:38:37;101929.25;;;16.28;100.00
55679;BME280;41573;51.446;-2.018;2022-07-10T07:41:03;101925.22;;;16.35;100.00
55679;BME280;41573;51.446;-2.018;2022-07-10T07:43:28;101926.06;;;16.35;100.00
55679;BME280;41573;51.446;-2.018;2022-07-10T07:45:54;101919.44;;;16.41;100.00
55679;BME280;41573;51.446;-2.018;2022-07-10T07:48:19;101927.22;;;16.46;100.00
55679;BME280;41573;51.446;-2.018;2022-07-10T07:50:44;101916.09;;;16.52;100.00
55679;BME280;41573;51.446;-2.018;2022-07-10T07:53:10;101927.69;;;16.52;100.00
55679;BME280;41573;51.446;-2.018;2022-07-10T07:55:37;101926.84;;;16.52;100.00
55679;BME280;41573;51.446;-2.018;2022-07-10T07:58:03;101916.47;;;16.60;100.00
55679;BME280;41573;51.446;-2.018;2022-07-10T08:00:29;101922.97;;;16.70;100.00
55679;BME280;41573;51.446;-2.018;2022-07-10T08:02:56;101910.06;;;16.76;100.00
55679;BME280;41573;51.446;-2.018;2022-07-10T08:05:21;101912.75;;;16.76;100.00
55679;BME280;41573;51.446;-2.018;2022-07-10T08:07:53;101908.91;;;16.80;100.00
55679;BME280;41573;51.446;-2.018;2022-07-10T08:10:21;101912.91;;;16.87;100.00
55679;BME280;41573;51.446;-2.018;2022-07-10T08:12:48;101906.19;;;16.94;100.00
55679;BME280;41573;51.446;-2.018;2022-07-10T08:15:19;101904.31;;;17.09;100.00
55679;BME280;41573;51.446;-2.018;2022-07-10T08:17:48;101895.72;;;17.17;100.00
55679;BME280;41573;51.446;-2.018;2022-07-10T08:20:14;101898.63;;;17.14;100.00
55679;BME280;41573;51.446;-2.018;2022-07-10T08:22:40;101899.72;;;17.24;100.00
55679;BME280;41573;51.446;-2.018;2022-07-10T08:25:06;101898.34;;;17.31;100.00
55679;BME280;41573;51.446;-2.018;2022-07-10T08:27:32;101905.22;;;17.35;100.00
55679;BME280;41573;51.446;-2.018;2022-07-10T08:29:57;101904.84;;;17.42;100.00
55679;BME280;41573;51.446;-2.018;2022-07-10T08:32:23;101889.13;;;17.48;100.00
55679;BME280;41573;51.446;-2.018;2022-07-10T08:34:48;101893.00;;;17.57;100.00
55679;BME280;41573;51.446;-2.018;2022-07-10T08:37:14;101895.72;;;17.57;100.00
55679;BME280;41573;51.446;-2.018;2022-07-10T08:39:40;101891.41;;;17.67;100.00
55679;BME280;41573;51.446;-2.018;2022-07-10T08:42:06;101894.53;;;17.74;100.00
55679;BME280;41573;51.446;-2.018;2022-07-10T08:44:33;101886.13;;;17.79;100.00
55679;BME280;41573;51.446;-2.018;2022-07-10T08:46:59;101886.75;;;17.82;100.00
55679;BME280;41573;51.446;-2.018;2022-07-10T08:49:27;101882.75;;;17.88;100.00
55679;BME280;41573;51.446;-2.018;2022-07-10T08:51:56;101879.56;;;17.96;100.00
55679;BME280;41573;51.446;-2.018;2022-07-10T08:54:22;101885.28;;;18.04;100.00
55679;BME280;41573;51.446;-2.018;2022-07-10T08:56:49;101872.56;;;18.06;100.00
55679;BME280;41573;51.446;-2.018;2022-07-10T08:59:16;101874.06;;;18.10;100.00
55679;BME280;41573;51.446;-2.018;2022-07-10T09:01:42;101874.25;;;18.20;100.00
55679;BME280;41573;51.446;-2.018;2022-07-10T09:04:16;101875.53;;;18.27;100.00
55679;BME280;41573;51.446;-2.018;2022-07-10T09:06:41;101875.31;;;18.30;100.00
55679;BME280;41573;51.446;-2.018;2022-07-10T09:09:07;101878.31;;;18.38;100.00
55679;BME280;41573;51.446;-2.018;2022-07-10T09:11:33;101877.00;;;18.44;100.00
55679;BME280;41573;51.446;-2.018;2022-07-10T09:14:01;101874.63;;;18.52;100.00
55679;BME280;41573;51.446;-2.018;2022-07-10T09:16:35;101866.59;;;18.64;100.00
55679;BME280;41573;51.446;-2.018;2022-07-10T09:21:50;101861.25;;;18.75;100.00
55679;BME280;41573;51.446;-2.018;2022-07-10T09:24:16;101857.13;;;18.82;100.00
55679;BME280;41573;51.446;-2.018;2022-07-10T09:27:01;101852.91;;;18.91;100.00
55679;BME280;41573;51.446;-2.018;2022-07-10T09:29:32;101851.44;;;18.98;100.00
55679;BME280;41573;51.446;-2.018;2022-07-10T09:32:00;101849.75;;;19.08;100.00
55679;BME280;41573;51.446;-2.018;2022-07-10T09:37:19;101844.78;;;19.26;100.00
55679;BME280;41573;51.446;-2.018;2022-07-10T09:47:56;101824.59;;;19.55;100.00
55679;BME280;41573;51.446;-2.018;2022-07-10T09:52:55;101828.78;;;19.70;100.00
55679;BME280;41573;51.446;-2.018;2022-07-10T09:55:23;101831.72;;;19.78;100.00
55679;BME280;41573;51.446;-2.018;2022-07-10T09:58:00;101825.63;;;19.88;100.00
55679;BME280;41573;51.446;-2.018;2022-07-10T10:00:29;101826.59;;;19.98;100.00
55679;BME280;41573;51.446;-2.018;2022-07-10T10:03:14;101814.53;;;20.13;100.00
55679;BME280;41573;51.446;-2.018;2022-07-10T10:05:45;101821.53;;;20.27;100.00
55679;BME280;41573;51.446;-2.018;2022-07-10T10:11:21;101817.97;;;20.38;100.00
55679;BME280;41573;51.446;-2.018;2022-07-10T10:13:49;101809.06;;;20.47;100.00
55679;BME280;41573;51.446;-2.018;2022-07-10T10:16:15;101803.63;;;20.59;100.00
55679;BME280;41573;51.446;-2.018;2022-07-10T10:18:44;101813.34;;;20.61;100.00
55679;BME280;41573;51.446;-2.018;2022-07-10T10:21:29;101801.16;;;20.67;100.00
55679;BME280;41573;51.446;-2.018;2022-07-10T10:23:55;101803.22;;;20.75;100.00
55679;BME280;41573;51.446;-2.018;2022-07-10T10:26:22;101807.88;;;20.84;100.00
55679;BME280;41573;51.446;-2.018;2022-07-10T10:28:53;101806.47;;;20.90;100.00
55679;BME280;41573;51.446;-2.018;2022-07-10T10:31:23;101802.00;;;21.00;96.70
55679;BME280;41573;51.446;-2.018;2022-07-10T10:33:54;101792.28;;;21.18;100.00
55679;BME280;41573;51.446;-2.018;2022-07-10T10:39:10;101797.91;;;21.27;100.00
55679;BME280;41573;51.446;-2.018;2022-07-10T10:49:53;101786.03;;;21.49;96.33
55679;BME280;41573;51.446;-2.018;2022-07-10T10:52:21;101782.22;;;21.51;94.54
55679;BME280;41573;51.446;-2.018;2022-07-10T10:57:24;101779.44;;;21.63;96.37
55679;BME280;41573;51.446;-2.018;2022-07-10T11:00:11;101778.06;;;21.78;92.09
55679;BME280;41573;51.446;-2.018;2022-07-10T11:02:38;101777.28;;;21.88;84.87
55679;BME280;41573;51.446;-2.018;2022-07-10T11:07:58;101778.56;;;22.03;80.88
55679;BME280;41573;51.446;-2.018;2022-07-10T11:10:40;101768.31;;;22.07;72.39
55679;BME280;41573;51.446;-2.018;2022-07-10T11:15:39;101770.63;;;22.21;77.96
55679;BME280;41573;51.446;-2.018;2022-07-10T11:18:06;101773.66;;;22.28;81.80
55679;BME280;41573;51.446;-2.018;2022-07-10T11:20:46;101765.06;;;22.32;80.67
55679;BME280;41573;51.446;-2.018;2022-07-10T11:23:48;101772.97;;;22.35;71.75
55679;BME280;41573;51.446;-2.018;2022-07-10T11:26:36;101773.38;;;22.31;64.82
55679;BME280;41573;51.446;-2.018;2022-07-10T11:29:08;101776.06;;;22.31;63.97
55679;BME280;41573;51.446;-2.018;2022-07-10T11:31:34;101771.84;;;22.38;64.32
55679;BME280;41573;51.446;-2.018;2022-07-10T11:34:04;101759.84;;;22.50;70.33
55679;BME280;41573;51.446;-2.018;2022-07-10T11:36:30;101763.56;;;22.59;76.40
55679;BME280;41573;51.446;-2.018;2022-07-10T11:39:02;101760.41;;;22.64;76.62
55679;BME280;41573;51.446;-2.018;2022-07-10T11:41:28;101755.41;;;22.69;76.69
55679;BME280;41573;51.446;-2.018;2022-07-10T11:43:55;101753.53;;;22.79;78.35
55679;BME280;41573;51.446;-2.018;2022-07-10T11:46:22;101746.38;;;22.78;70.19
55679;BME280;41573;51.446;-2.018;2022-07-10T11:48:50;101751.56;;;22.81;69.29
55679;BME280;41573;51.446;-2.018;2022-07-10T11:54:11;101751.56;;;22.81;78.03
55679;BME280;41573;51.446;-2.018;2022-07-10T11:56:42;101741.41;;;22.83;77.66
55679;BME280;41573;51.446;-2.018;2022-07-10T11:59:13;101736.63;;;23.05;86.92
55679;BME280;41573;51.446;-2.018;2022-07-10T12:01:43;101731.19;;;23.24;78.68
55679;BME280;41573;51.446;-2.018;2022-07-10T12:04:09;101735.00;;;23.41;80.85
55679;BME280;41573;51.446;-2.018;2022-07-10T12:06:43;101731.66;;;23.48;75.08
55679;BME280;41573;51.446;-2.018;2022-07-10T12:09:11;101735.34;;;23.56;71.50
55679;BME280;41573;51.446;-2.018;2022-07-10T12:11:38;101725.88;;;23.61;71.98
55679;BME280;41573;51.446;-2.018;2022-07-10T12:14:19;101716.84;;;23.70;66.39
55679;BME280;41573;51.446;-2.018;2022-07-10T12:16:50;101715.13;;;23.69;66.46
55679;BME280;41573;51.446;-2.018;2022-07-10T12:19:21;101721.56;;;23.68;67.40
55679;BME280;41573;51.446;-2.018;2022-07-10T12:21:48;101721.47;;;23.60;63.56
55679;BME280;41573;51.446;-2.018;2022-07-10T12:24:15;101721.91;;;23.55;64.02
55679;BME280;41573;51.446;-2.018;2022-07-10T12:26:42;101717.06;;;23.49;62.66
55679;BME280;41573;51.446;-2.018;2022-07-10T12:29:21;101712.78;;;23.46;62.27
55679;BME280;41573;51.446;-2.018;2022-07-10T12:31:54;101707.66;;;23.43;62.80
55679;BME280;41573;51.446;-2.018;2022-07-10T12:34:41;101702.72;;;23.56;64.16
55679;BME280;41573;51.446;-2.018;2022-07-10T12:37:15;101696.88;;;23.79;62.21
55679;BME280;41573;51.446;-2.018;2022-07-10T12:39:49;101705.66;;;24.01;62.55
55679;BME280;41573;51.446;-2.018;2022-07-10T12:42:31;101693.00;;;24.09;60.95
55679;BME280;41573;51.446;-2.018;2022-07-10T12:45:14;101689.34;;;24.19;58.97
55679;BME280;41573;51.446;-2.018;2022-07-10T12:47:57;101680.84;;;24.22;59.20
55679;BME280;41573;51.446;-2.018;2022-07-10T12:50:23;101672.56;;;24.23;54.93
55679;BME280;41573;51.446;-2.018;2022-07-10T12:53:07;101680.84;;;24.22;53.91
55679;BME280;41573;51.446;-2.018;2022-07-10T12:55:37;101678.00;;;24.23;54.95
55679;BME280;41573;51.446;-2.018;2022-07-10T12:58:08;101679.47;;;24.36;54.03
55679;BME280;41573;51.446;-2.018;2022-07-10T13:00:35;101669.81;;;24.41;53.74
55679;BME280;41573;51.446;-2.018;2022-07-10T13:03:08;101666.59;;;24.46;52.08
55679;BME280;41573;51.446;-2.018;2022-07-10T13:05:39;101668.00;;;24.50;51.67
55679;BME280;41573;51.446;-2.018;2022-07-10T13:10:39;101662.25;;;24.53;52.74
55679;BME280;41573;51.446;-2.018;2022-07-10T13:13:05;101657.94;;;24.60;51.79
55679;BME280;41573;51.446;-2.018;2022-07-10T13:15:31;101657.59;;;24.64;49.81
55679;BME280;41573;51.446;-2.018;2022-07-10T13:17:57;101669.25;;;24.74;50.57
55679;BME280;41573;51.446;-2.018;2022-07-10T13:20:23;101665.50;;;24.75;51.35
55679;BME280;41573;51.446;-2.018;2022-07-10T13:22:48;101668.16;;;24.67;49.70
55679;BME280;41573;51.446;-2.018;2022-07-10T13:25:14;101657.50;;;24.55;50.45
55679;BME280;41573;51.446;-2.018;2022-07-10T13:27:40;101656.44;;;24.48;50.61
55679;BME280;41573;51.446;-2.018;2022-07-10T13:30:07;101666.59;;;24.46;49.91
55679;BME280;41573;51.446;-2.018;2022-07-10T13:32:33;101658.16;;;24.49;49.73
55679;BME280;41573;51.446;-2.018;2022-07-10T13:34:59;101661.72;;;24.68;49.45
55679;BME280;41573;51.446;-2.018;2022-07-10T13:37:24;101650.84;;;24.76;49.25
55679;BME280;41573;51.446;-2.018;2022-07-10T13:39:50;101657.41;;;24.83;46.29
55679;BME280;41573;51.446;-2.018;2022-07-10T13:42:15;101658.13;;;24.93;47.02
55679;BME280;41573;51.446;-2.018;2022-07-10T13:44:40;101656.63;;;24.99;47.57
55679;BME280;41573;51.446;-2.018;2022-07-10T13:47:06;101654.16;;;25.14;48.66
55679;BME280;41573;51.446;-2.018;2022-07-10T13:49:31;101653.69;;;25.19;44.38
55679;BME280;41573;51.446;-2.018;2022-07-10T13:51:57;101648.25;;;25.19;44.80
55679;BME280;41573;51.446;-2.018;2022-07-10T13:54:23;101653.53;;;25.20;44.25
55679;BME280;41573;51.446;-2.018;2022-07-10T13:56:48;101650.09;;;25.18;44.38
55679;BME280;41573;51.446;-2.018;2022-07-10T13:59:14;101654.31;;;25.12;43.03
55679;BME280;41573;51.446;-2.018;2022-07-10T14:01:39;101653.25;;;25.05;42.13
55679;BME280;41573;51.446;-2.018;2022-07-10T14:04:04;101645.09;;;25.05;42.50
55679;BME280;41573;51.446;-2.018;2022-07-10T14:06:30;101643.97;;;25.16;41.43
55679;BME280;41573;51.446;-2.018;2022-07-10T14:08:56;101647.91;;;25.22;42.05
55679;BME280;41573;51.446;-2.018;2022-07-10T14:11:21;101648.09;;;25.28;41.23
55679;BME280;41573;51.446;-2.018;2022-07-10T14:13:47;101643.25;;;25.40;41.06
55679;BME280;41573;51.446;-2.018;2022-07-10T14:16:12;101644.47;;;25.46;40.65
55679;BME280;41573;51.446;-2.018;2022-07-10T14:18:38;101646.88;;;25.57;40.49
55679;BME280;41573;51.446;-2.018;2022-07-10T14:21:05;101639.75;;;25.64;41.30
55679;BME280;41573;51.446;-2.018;2022-07-10T14:23:31;101634.31;;;25.73;38.98
55679;BME280;41573;51.446;-2.018;2022-07-10T14:25:59;101628.16;;;25.71;37.86
55679;BME280;41573;51.446;-2.018;2022-07-10T14:28:24;101623.03;;;25.68;38.75
55679;BME280;41573;51.446;-2.018;2022-07-10T14:30:50;101619.97;;;25.71;39.09
55679;BME280;41573;51.446;-2.018;2022-07-10T14:33:15;101621.16;;;25.68;39.18
55679;BME280;41573;51.446;-2.018;2022-07-10T14:35:41;101616.91;;;25.82;39.58
55679;BME280;41573;51.446;-2.018;2022-07-10T14:38:07;101612.16;;;25.84;39.35
55679;BME280;41573;51.446;-2.018;2022-07-10T14:40:32;101603.63;;;25.79;38.01
55679;BME280;41573;51.446;-2.018;2022-07-10T14:42:58;101607.41;;;25.94;37.40
55679;BME280;41573;51.446;-2.018;2022-07-10T14:45:24;101609.13;;;25.95;37.71
55679;BME280;41573;51.446;-2.018;2022-07-10T14:47:49;101612.34;;;25.99;38.60
55679;BME280;41573;51.446;-2.018;2022-07-10T14:50:15;101598.91;;;26.06;37.62
55679;BME280;41573;51.446;-2.018;2022-07-10T14:52:42;101606.41;;;26.04;37.24
55679;BME280;41573;51.446;-2.018;2022-07-10T14:55:08;101599.25;;;26.03;38.71
55679;BME280;41573;51.446;-2.018;2022-07-10T14:57:33;101594.81;;;26.02;37.94
55679;BME280;41573;51.446;-2.018;2022-07-10T14:59:59;101586.28;;;26.05;38.58
55679;BME280;41573;51.446;-2.018;2022-07-10T15:02:24;101583.72;;;26.03;38.93